Barkman, Texas
Current Conditions -  °F | °C
As of 3:05 PM on Friday 19 Dec 2014 (Local Time) from KTXK Reporting Station
Overcast Overcast  
Wind Chill: 43°   Ceiling: 1300
Heat Index: 47°   Visibility: 7mi
Dew Point: 43°   Wind: 8mph
Humidity: 86%   Direction: 30°NNE
Pressure: 30.15"   Gusts: NA
Location:  33.474°N, 94.2882°W
Report Text: KTXK 192105Z AUTO 03007KT 7SM OVC013 08/06 A3015 RMK AO2 T00830061 TSNO
Loading
Personal Weather Stations






























Interactive Weather Map New forecast layout! Learn more

10-Day Weather Forecast

Advertisements
Track Severe Weather on mobile